createdAt,value
2023-03-29T00:00:21.909Z,97385.03
2023-03-29T00:02:48.966Z,97341.13
2023-03-29T00:05:25.725Z,97385.44
2023-03-29T00:07:54.374Z,97375.44
2023-03-29T00:10:24.983Z,97355.81
2023-03-29T00:12:52.681Z,97340.91
2023-03-29T00:15:20.175Z,97395.22
2023-03-29T00:17:47.020Z,97388.50
2023-03-29T00:20:14.265Z,97359.69
2023-03-29T00:22:46.699Z,97411.38
2023-03-29T00:25:14.142Z,97367.03
2023-03-29T00:27:41.230Z,97349.28
2023-03-29T00:30:10.282Z,97360.31
2023-03-29T00:32:37.854Z,97343.81
2023-03-29T00:35:07.847Z,97401.16
2023-03-29T00:37:34.671Z,97355.00
2023-03-29T00:40:01.565Z,97343.56
2023-03-29T00:42:28.629Z,97384.41
2023-03-29T00:45:01.953Z,97368.66
2023-03-29T00:47:38.487Z,97361.72
2023-03-29T00:50:12.919Z,97367.88
2023-03-29T00:52:42.527Z,97341.91
2023-03-29T00:55:15.872Z,97375.41
2023-03-29T00:57:46.868Z,97333.16
2023-03-29T01:00:21.009Z,97377.66
2023-03-29T01:02:54.467Z,97375.81
2023-03-29T01:05:32.737Z,97346.22
2023-03-29T01:08:05.439Z,97388.91
2023-03-29T01:10:41.530Z,97375.63
2023-03-29T01:13:15.201Z,97355.00
2023-03-29T01:15:45.651Z,97343.19
2023-03-29T01:18:12.776Z,97392.59
2023-03-29T01:21:09.022Z,97396.25
2023-03-29T01:24:07.108Z,97408.31
2023-03-29T01:26:57.214Z,97391.56
2023-03-29T01:29:50.166Z,97397.69
2023-03-29T01:32:22.738Z,97371.53
2023-03-29T01:34:59.974Z,97393.81
2023-03-29T01:37:29.056Z,97391.34
2023-03-29T01:39:55.793Z,97393.81
2023-03-29T01:42:58.051Z,97342.34
2023-03-29T01:45:31.827Z,97394.81
2023-03-29T01:48:07.440Z,97335.63
2023-03-29T01:50:58.622Z,97409.13
2023-03-29T01:53:45.917Z,97396.06
2023-03-29T01:56:16.503Z,97377.25
2023-03-29T01:58:46.974Z,97356.84
2023-03-29T02:01:19.508Z,97322.38
2023-03-29T02:03:51.154Z,97371.53
2023-03-29T02:06:21.415Z,97361.13
2023-03-29T02:08:48.846Z,97387.06
2023-03-29T02:11:16.373Z,97372.16
2023-03-29T02:13:43.115Z,97387.47
2023-03-29T02:16:15.168Z,97395.03
2023-03-29T02:18:46.908Z,97359.09
2023-03-29T02:21:24.271Z,97382.56
2023-03-29T02:23:54.984Z,97353.38
2023-03-29T02:26:24.344Z,97378.28
2023-03-29T02:28:52.997Z,97407.72
2023-03-29T02:31:54.616Z,97352.56
2023-03-29T02:34:26.925Z,97391.16
2023-03-29T02:37:00.993Z,97385.63
2023-03-29T02:39:32.250Z,97405.06
2023-03-29T02:41:59.657Z,97404.03
2023-03-29T02:44:30.807Z,97382.19
2023-03-29T02:47:03.817Z,97385.44
2023-03-29T02:49:31.061Z,97399.91
2023-03-29T02:52:07.615Z,97338.28
2023-03-29T02:54:37.993Z,97422.59
2023-03-29T02:57:08.658Z,97330.13
2023-03-29T02:59:36.328Z,97355.84
2023-03-29T03:02:03.423Z,97410.38
2023-03-29T03:04:31.805Z,97411.38
2023-03-29T03:06:58.523Z,97357.06
2023-03-29T03:09:27.464Z,97372.56
2023-03-29T03:11:54.558Z,97384.44
2023-03-29T03:14:22.989Z,97375.25
2023-03-29T03:16:50.571Z,97386.66
2023-03-29T03:19:18.026Z,97378.28
2023-03-29T03:21:45.625Z,97365.22
2023-03-29T03:24:16.094Z,97406.69
2023-03-29T03:26:44.925Z,97413.41
2023-03-29T03:29:12.204Z,97344.19
2023-03-29T03:31:41.438Z,97360.72
2023-03-29T03:34:09.053Z,97413.19
2023-03-29T03:36:36.070Z,97382.31
2023-03-29T03:39:06.010Z,97391.47
2023-03-29T03:41:34.338Z,97365.53
2023-03-29T03:44:01.213Z,97413.09
2023-03-29T03:46:29.488Z,97433.94
2023-03-29T03:48:56.730Z,97414.13
2023-03-29T03:51:23.418Z,97405.91
2023-03-29T03:53:50.116Z,97400.19
2023-03-29T03:56:18.087Z,97402.66
2023-03-29T03:58:44.866Z,97455.59
2023-03-29T04:01:11.958Z,97366.06
2023-03-29T04:03:39.490Z,97430.03
2023-03-29T04:06:06.730Z,97465.81
2023-03-29T04:08:33.486Z,97455.59
2023-03-29T04:11:00.599Z,97455.16
2023-03-29T04:13:27.980Z,97464.13
2023-03-29T04:15:58.792Z,97442.84
2023-03-29T04:18:27.836Z,97405.06
2023-03-29T04:20:54.601Z,97453.88
2023-03-29T04:23:21.332Z,97452.28
2023-03-29T04:25:48.458Z,97432.44
2023-03-29T04:28:15.535Z,97409.91
2023-03-29T04:30:42.506Z,97464.53
2023-03-29T04:33:09.770Z,97445.94
2023-03-29T04:35:36.611Z,97413.75
2023-03-29T04:38:04.537Z,97426.25
2023-03-29T04:40:35.810Z,97476.94
2023-03-29T04:43:02.698Z,97419.88
2023-03-29T04:45:29.535Z,97475.72
2023-03-29T04:47:59.880Z,97459.38
2023-03-29T04:50:26.752Z,97489.19
2023-03-29T04:52:53.530Z,97433.38
2023-03-29T04:55:20.709Z,97499.25
2023-03-29T04:57:47.411Z,97459.16
2023-03-29T05:00:15.400Z,97506.97
2023-03-29T05:02:44.517Z,97521.88
2023-03-29T05:05:11.837Z,97493.00
2023-03-29T05:07:38.819Z,97451.50
2023-03-29T05:10:06.264Z,97526.97
2023-03-29T05:12:33.198Z,97529.22
2023-03-29T05:14:59.955Z,97477.72
2023-03-29T05:17:27.840Z,97541.47
2023-03-29T05:19:55.102Z,97488.09
2023-03-29T05:22:21.849Z,97462.53
2023-03-29T05:24:49.061Z,97482.78
2023-03-29T05:27:17.291Z,97547.38
2023-03-29T05:29:45.017Z,97543.69
2023-03-29T05:32:13.795Z,97492.16
2023-03-29T05:34:40.705Z,97512.81
2023-03-29T05:37:07.764Z,97523.47
2023-03-29T05:39:37.566Z,97532.09
2023-03-29T05:42:04.824Z,97478.44
2023-03-29T05:44:31.656Z,97519.81
2023-03-29T05:46:58.661Z,97501.75
2023-03-29T05:49:25.694Z,97542.28
2023-03-29T05:51:57.013Z,97547.16
2023-03-29T05:54:24.672Z,97525.47
2023-03-29T05:56:52.017Z,97518.50
2023-03-29T05:59:19.864Z,97471.44
2023-03-29T06:01:50.151Z,97521.72
2023-03-29T06:04:18.262Z,97517.44
2023-03-29T06:06:45.061Z,97564.28
2023-03-29T06:09:12.360Z,97559.81
2023-03-29T06:11:39.376Z,97512.88
2023-03-29T06:14:06.442Z,97578.00
2023-03-29T06:16:33.785Z,97520.91
2023-03-29T06:19:00.866Z,97516.50
2023-03-29T06:21:28.634Z,97579.94
2023-03-29T06:23:56.005Z,97571.56
2023-03-29T06:26:22.850Z,97566.06
2023-03-29T06:28:52.113Z,97597.75
2023-03-29T06:31:20.149Z,97502.22
2023-03-29T06:33:47.361Z,97557.31
2023-03-29T06:36:16.328Z,97507.59
2023-03-29T06:38:45.838Z,97570.78
2023-03-29T06:41:12.541Z,97580.47
2023-03-29T06:43:39.473Z,97570.22
2023-03-29T06:46:12.338Z,97554.06
2023-03-29T06:48:39.923Z,97559.63
2023-03-29T06:51:07.779Z,97612.38
2023-03-29T06:53:37.594Z,97558.00
2023-03-29T06:56:09.470Z,97555.06
2023-03-29T06:58:37.015Z,97596.47
2023-03-29T07:01:04.866Z,97617.97
2023-03-29T07:03:34.067Z,97598.38
2023-03-29T07:06:04.132Z,97605.13
2023-03-29T07:08:35.574Z,97583.22
2023-03-29T07:11:03.720Z,97599.97
2023-03-29T07:13:33.110Z,97599.19
2023-03-29T07:16:00.335Z,97626.78
2023-03-29T07:18:27.263Z,97555.22
2023-03-29T07:20:54.344Z,97552.75
2023-03-29T07:23:21.872Z,97651.13
2023-03-29T07:25:49.319Z,97623.34
2023-03-29T07:28:16.090Z,97579.75
2023-03-29T07:30:43.025Z,97595.72
2023-03-29T07:33:11.210Z,97571.19
2023-03-29T07:35:38.505Z,97649.09
2023-03-29T07:38:08.190Z,97583.88
2023-03-29T07:40:35.290Z,97651.56
2023-03-29T07:43:07.459Z,97612.91
2023-03-29T07:45:34.462Z,97642.75
2023-03-29T07:48:02.216Z,97633.38
2023-03-29T07:50:32.595Z,97651.56
2023-03-29T07:53:01.322Z,97654.22
2023-03-29T07:55:28.772Z,97652.78
2023-03-29T07:57:55.714Z,97656.28
2023-03-29T08:00:25.286Z,97662.00
2023-03-29T08:02:52.688Z,97649.31
2023-03-29T08:05:37.902Z,97610.63
2023-03-29T08:08:10.131Z,97661.94
2023-03-29T08:10:41.842Z,97617.78
2023-03-29T08:13:11.846Z,97649.09
2023-03-29T08:15:40.262Z,97633.75
2023-03-29T08:18:08.287Z,97668.97
2023-03-29T08:20:35.419Z,97682.44
2023-03-29T08:23:02.669Z,97656.22
2023-03-29T08:25:29.640Z,97679.94
2023-03-29T08:27:56.924Z,97705.91
2023-03-29T08:30:28.162Z,97691.16
2023-03-29T08:32:55.479Z,97706.28
2023-03-29T08:35:22.814Z,97693.22
2023-03-29T08:37:49.972Z,97696.88
2023-03-29T08:40:24.814Z,97683.19
2023-03-29T08:43:15.863Z,97659.25
2023-03-29T08:46:02.283Z,97690.97
2023-03-29T08:48:37.618Z,97629.53
2023-03-29T08:51:34.724Z,97632.84
2023-03-29T08:54:14.619Z,97662.75
2023-03-29T08:56:44.932Z,97691.38
2023-03-29T08:59:21.191Z,97698.16
2023-03-29T09:01:50.534Z,97639.03
2023-03-29T09:04:25.728Z,97650.91
2023-03-29T09:06:52.968Z,97695.31
2023-03-29T09:09:22.853Z,97675.84
2023-03-29T09:12:04.168Z,97706.19
2023-03-29T09:14:45.134Z,97640.72
2023-03-29T09:17:53.893Z,97669.94
2023-03-29T09:20:23.084Z,97682.78
2023-03-29T09:23:20.059Z,97677.84
2023-03-29T09:26:01.000Z,97674.59
2023-03-29T09:28:41.202Z,97697.94
2023-03-29T09:31:16.755Z,97679.69
2023-03-29T09:33:50.690Z,97693.97
2023-03-29T09:36:24.121Z,97610.31
2023-03-29T09:38:54.642Z,97636.50
2023-03-29T09:41:28.054Z,97687.56
2023-03-29T09:43:57.922Z,97715.81
2023-03-29T09:46:44.149Z,97719.75
2023-03-29T09:49:33.431Z,97705.03
2023-03-29T09:52:05.982Z,97696.28
2023-03-29T09:54:33.948Z,97668.84
2023-03-29T09:57:01.285Z,97713.44
2023-03-29T09:59:29.356Z,97686.78
2023-03-29T10:02:10.331Z,97700.34
2023-03-29T10:04:38.667Z,97646.59
2023-03-29T10:07:19.480Z,97655.59
2023-03-29T10:09:47.651Z,97727.44
2023-03-29T10:12:16.179Z,97723.97
2023-03-29T10:14:49.861Z,97702.03
2023-03-29T10:17:29.662Z,97655.81
2023-03-29T10:19:58.592Z,97703.06
2023-03-29T10:22:35.283Z,97698.97
2023-03-29T10:25:03.018Z,97711.47
2023-03-29T10:27:32.388Z,97699.56
2023-03-29T10:30:01.180Z,97612.81
2023-03-29T10:32:34.968Z,97679.03
2023-03-29T10:35:25.192Z,97630.53
2023-03-29T10:37:56.058Z,97708.00
2023-03-29T10:40:32.316Z,97690.19
2023-03-29T10:43:03.979Z,97710.22
2023-03-29T10:45:35.337Z,97697.53
2023-03-29T10:48:05.336Z,97646.56
2023-03-29T10:50:35.572Z,97693.94
2023-03-29T10:53:03.312Z,97616.25
2023-03-29T10:55:43.630Z,97694.66
2023-03-29T10:58:19.592Z,97708.69
2023-03-29T11:00:57.303Z,97645.13
2023-03-29T11:03:51.247Z,97696.25
2023-03-29T11:06:41.401Z,97676.88
2023-03-29T11:09:23.564Z,97693.72
2023-03-29T11:12:24.934Z,97660.44
2023-03-29T11:15:14.797Z,97624.22
2023-03-29T11:17:53.715Z,97636.63
2023-03-29T11:20:29.292Z,97673.84
2023-03-29T11:23:16.871Z,97636.22
2023-03-29T11:25:56.311Z,97669.91
2023-03-29T11:28:38.044Z,97647.56
2023-03-29T11:31:10.640Z,97637.94
2023-03-29T11:33:52.986Z,97643.72
2023-03-29T11:36:39.048Z,97575.31
2023-03-29T11:39:30.061Z,97613.91
2023-03-29T11:42:07.936Z,97639.47
2023-03-29T11:44:36.850Z,97595.88
2023-03-29T11:47:10.706Z,97633.72
2023-03-29T11:49:43.445Z,97647.50
2023-03-29T11:52:24.556Z,97622.47
2023-03-29T11:55:18.450Z,97611.06
2023-03-29T11:57:57.030Z,97603.94
2023-03-29T12:00:33.155Z,97635.63
2023-03-29T12:03:37.264Z,97635.81
2023-03-29T12:06:19.282Z,97613.88
2023-03-29T12:08:57.380Z,97629.00
2023-03-29T12:11:38.137Z,97593.13
2023-03-29T12:14:36.128Z,97648.69
2023-03-29T12:17:10.524Z,97575.88
2023-03-29T12:19:51.416Z,97569.91
2023-03-29T12:22:21.467Z,97633.22
2023-03-29T12:24:52.661Z,97608.16
2023-03-29T12:27:26.550Z,97614.69
2023-03-29T12:30:15.107Z,97634.72
2023-03-29T12:32:51.270Z,97629.00
2023-03-29T12:35:30.494Z,97639.13
2023-03-29T12:38:19.639Z,97626.09
2023-03-29T12:40:48.960Z,97628.56
2023-03-29T12:43:24.440Z,97645.72
2023-03-29T12:46:10.255Z,97640.94
2023-03-29T12:48:40.619Z,97629.28
2023-03-29T12:51:23.550Z,97572.81
2023-03-29T12:53:56.093Z,97614.84
2023-03-29T12:56:37.102Z,97631.00
2023-03-29T12:59:27.975Z,97610.91
2023-03-29T13:02:10.832Z,97648.66
2023-03-29T13:04:44.718Z,97646.91
2023-03-29T13:07:25.722Z,97628.94
2023-03-29T13:09:55.735Z,97584.56
2023-03-29T13:12:32.968Z,97582.91
2023-03-29T13:15:03.928Z,97552.34
2023-03-29T13:17:49.496Z,97620.50
2023-03-29T13:20:40.446Z,97648.50
2023-03-29T13:23:32.481Z,97649.53
2023-03-29T13:26:23.567Z,97629.66
2023-03-29T13:29:15.172Z,97624.75
2023-03-29T13:32:15.869Z,97634.63
2023-03-29T13:34:53.376Z,97636.03
2023-03-29T13:37:39.015Z,97600.97
2023-03-29T13:40:28.593Z,97612.25
2023-03-29T13:43:22.359Z,97588.72
2023-03-29T13:45:58.545Z,97628.44
2023-03-29T13:48:38.665Z,97633.69
2023-03-29T13:51:29.838Z,97631.63
2023-03-29T13:54:03.496Z,97629.66
2023-03-29T13:56:52.573Z,97628.69
2023-03-29T13:59:25.853Z,97583.28
2023-03-29T14:02:03.069Z,97565.59
2023-03-29T14:04:44.284Z,97600.75
2023-03-29T14:07:14.886Z,97630.56
2023-03-29T14:09:49.004Z,97612.63
2023-03-29T14:12:16.171Z,97612.03
2023-03-29T14:14:58.364Z,97606.09
2023-03-29T14:17:27.322Z,97574.44
2023-03-29T14:19:58.289Z,97626.72
2023-03-29T14:22:31.162Z,97602.72
2023-03-29T14:25:02.612Z,97604.59
2023-03-29T14:27:32.237Z,97633.59
2023-03-29T14:29:59.300Z,97645.22
2023-03-29T14:32:31.462Z,97572.44
2023-03-29T14:34:58.997Z,97581.06
2023-03-29T14:37:28.633Z,97569.78
2023-03-29T14:39:56.742Z,97623.34
2023-03-29T14:42:29.087Z,97634.06
2023-03-29T14:45:06.480Z,97589.94
2023-03-29T14:47:35.177Z,97624.19
2023-03-29T14:50:02.744Z,97610.66
2023-03-29T14:52:31.270Z,97638.59
2023-03-29T14:55:04.489Z,97608.56
2023-03-29T14:57:36.671Z,97611.22
2023-03-29T15:00:20.999Z,97600.88
2023-03-29T15:02:55.353Z,97606.56
2023-03-29T15:05:44.667Z,97652.47
2023-03-29T15:08:19.988Z,97621.13
2023-03-29T15:10:47.501Z,97618.44
2023-03-29T15:13:24.640Z,97588.41
2023-03-29T15:15:57.020Z,97601.22
2023-03-29T15:18:36.347Z,97627.66
2023-03-29T15:21:03.794Z,97647.69
2023-03-29T15:24:01.345Z,97599.34
2023-03-29T15:26:38.021Z,97598.09
2023-03-29T15:29:12.996Z,97640.81
2023-03-29T15:31:42.502Z,97603.44
2023-03-29T15:34:24.122Z,97609.97
2023-03-29T15:36:52.319Z,97630.56
2023-03-29T15:39:20.117Z,97634.03
2023-03-29T15:41:49.486Z,97664.56
2023-03-29T15:44:18.316Z,97634.13
2023-03-29T15:46:45.105Z,97621.31
2023-03-29T15:49:12.953Z,97656.03
2023-03-29T15:51:41.002Z,97651.63
2023-03-29T15:54:09.274Z,97659.28
2023-03-29T15:56:44.470Z,97633.75
2023-03-29T15:59:12.395Z,97663.13
2023-03-29T16:01:39.403Z,97665.66
2023-03-29T16:04:21.237Z,97657.41
2023-03-29T16:06:50.253Z,97650.63
2023-03-29T16:09:17.285Z,97671.47
2023-03-29T16:11:46.389Z,97644.97
2023-03-29T16:14:12.965Z,97675.75
2023-03-29T16:16:39.720Z,97663.81
2023-03-29T16:19:06.819Z,97681.03
2023-03-29T16:21:33.542Z,97674.41
2023-03-29T16:24:00.371Z,97645.91
2023-03-29T16:26:27.656Z,97662.09
2023-03-29T16:28:54.392Z,97648.78
2023-03-29T16:31:21.096Z,97662.25
2023-03-29T16:33:48.539Z,97620.41
2023-03-29T16:36:15.244Z,97672.28
2023-03-29T16:38:42.097Z,97665.75
2023-03-29T16:41:17.311Z,97680.91
2023-03-29T16:43:44.455Z,97666.88
2023-03-29T16:46:12.322Z,97653.09
2023-03-29T16:48:39.444Z,97645.81
2023-03-29T16:51:07.151Z,97696.28
2023-03-29T16:53:37.674Z,97614.19
2023-03-29T16:56:05.130Z,97677.13
2023-03-29T16:58:32.450Z,97652.72
2023-03-29T17:01:07.788Z,97689.16
2023-03-29T17:03:36.303Z,97694.97
2023-03-29T17:06:04.635Z,97696.72
2023-03-29T17:08:33.799Z,97671.34
2023-03-29T17:11:01.124Z,97705.53
2023-03-29T17:13:28.240Z,97703.00
2023-03-29T17:15:56.302Z,97726.47
2023-03-29T17:18:26.443Z,97726.38
2023-03-29T17:20:58.863Z,97672.28
2023-03-29T17:23:27.520Z,97680.84
2023-03-29T17:26:01.741Z,97724.38
2023-03-29T17:28:29.534Z,97713.00
2023-03-29T17:30:57.421Z,97706.50
2023-03-29T17:33:28.607Z,97756.84
2023-03-29T17:35:56.227Z,97748.13
2023-03-29T17:38:23.079Z,97741.81
2023-03-29T17:40:54.416Z,97732.06
2023-03-29T17:43:33.290Z,97778.22
2023-03-29T17:46:00.321Z,97782.75
2023-03-29T17:48:28.455Z,97792.63
2023-03-29T17:50:57.183Z,97772.59
2023-03-29T17:53:24.443Z,97799.63
2023-03-29T17:55:55.051Z,97794.72
2023-03-29T17:58:34.968Z,97724.09
2023-03-29T18:01:10.822Z,97750.69
2023-03-29T18:03:38.688Z,97727.19
2023-03-29T18:06:53.864Z,97787.72
2023-03-29T18:09:00.568Z,97776.97
2023-03-29T18:11:42.846Z,97820.41
2023-03-29T18:14:16.829Z,97712.63
2023-03-29T18:16:43.616Z,97756.88
2023-03-29T18:23:21.057Z,97737.16
2023-03-29T18:29:39.296Z,97832.03
2023-03-29T18:32:30.989Z,97818.13
2023-03-29T18:35:28.427Z,97837.41
2023-03-29T18:37:57.074Z,97745.28
2023-03-29T18:40:26.509Z,97836.00
2023-03-29T18:45:47.723Z,97831.91
2023-03-29T18:48:45.560Z,97836.63
2023-03-29T18:51:28.777Z,97829.03
2023-03-29T18:53:59.846Z,97829.00
2023-03-29T18:56:34.843Z,97745.47
2023-03-29T18:59:05.570Z,97792.56
2023-03-29T19:01:33.363Z,97808.53
2023-03-29T19:04:00.503Z,97785.53
2023-03-29T19:06:52.785Z,97773.47
2023-03-29T19:09:18.324Z,97839.63
2023-03-29T19:15:22.816Z,97780.56
2023-03-29T19:17:49.937Z,97810.66
2023-03-29T19:20:18.508Z,97839.94
2023-03-29T19:22:45.781Z,97837.84
2023-03-29T19:25:12.691Z,97823.09
2023-03-29T19:27:44.494Z,97831.25
2023-03-29T19:30:11.673Z,97775.91
2023-03-29T19:32:38.712Z,97834.06
2023-03-29T19:35:07.328Z,97804.16
2023-03-29T19:38:09.519Z,97752.84
2023-03-29T19:40:43.230Z,97713.94
2023-03-29T19:43:14.438Z,97824.97
2023-03-29T19:45:41.165Z,97764.28
2023-03-29T19:50:46.590Z,97809.38
2023-03-29T19:53:13.649Z,97782.03
2023-03-29T19:55:42.553Z,97774.81
2023-03-29T19:58:09.653Z,97769.66
2023-03-29T20:00:38.895Z,97810.69
2023-03-29T20:03:09.505Z,97827.22
2023-03-29T20:05:38.969Z,97835.75
2023-03-29T20:08:35.818Z,97828.56
2023-03-29T20:11:04.138Z,97815.59
2023-03-29T20:13:38.250Z,97834.00
2023-03-29T20:16:08.315Z,97791.72
2023-03-29T20:18:35.084Z,97812.59
2023-03-29T20:21:02.265Z,97844.34
2023-03-29T20:23:30.129Z,97799.63
2023-03-29T20:25:57.418Z,97773.06
2023-03-29T20:28:25.141Z,97815.78
2023-03-29T20:30:52.924Z,97846.06
2023-03-29T20:33:20.702Z,97813.34
2023-03-29T20:35:49.346Z,97841.88
2023-03-29T20:38:16.397Z,97802.88
2023-03-29T20:40:43.342Z,97852.25
2023-03-29T20:43:13.462Z,97822.03
2023-03-29T20:45:52.622Z,97793.72
2023-03-29T20:48:24.864Z,97835.56
2023-03-29T20:50:52.356Z,97833.50
2023-03-29T20:53:20.586Z,97813.31
2023-03-29T20:55:48.979Z,97798.94
2023-03-29T20:58:16.100Z,97826.03
2023-03-29T21:00:43.677Z,97801.78
2023-03-29T21:03:11.241Z,97822.66
2023-03-29T21:05:39.125Z,97812.56
2023-03-29T21:08:06.128Z,97813.22
2023-03-29T21:10:32.996Z,97802.00
2023-03-29T21:13:00.549Z,97797.97
2023-03-29T21:15:29.505Z,97818.88
2023-03-29T21:17:56.920Z,97811.03
2023-03-29T21:20:24.705Z,97818.78
2023-03-29T21:22:51.720Z,97806.41
2023-03-29T21:25:19.164Z,97828.38
2023-03-29T21:27:46.600Z,97790.81
2023-03-29T21:30:13.716Z,97807.53
2023-03-29T21:32:41.298Z,97807.09
2023-03-29T21:35:08.920Z,97815.66
2023-03-29T21:37:35.753Z,97789.38
2023-03-29T21:40:06.054Z,97833.81
2023-03-29T21:42:34.122Z,97821.75
2023-03-29T21:45:01.065Z,97822.16
2023-03-29T21:47:28.053Z,97828.19
2023-03-29T21:49:54.787Z,97762.75
2023-03-29T21:52:21.680Z,97790.59
2023-03-29T21:54:48.645Z,97802.34
2023-03-29T21:57:15.530Z,97830.94
2023-03-29T21:59:42.472Z,97795.69
2023-03-29T22:02:09.621Z,97841.06
2023-03-29T22:04:37.692Z,97821.72
2023-03-29T22:07:05.903Z,97832.31
2023-03-29T22:09:35.037Z,97849.53
2023-03-29T22:12:03.052Z,97847.28
2023-03-29T22:14:31.806Z,97810.94
2023-03-29T22:16:58.698Z,97785.75
2023-03-29T22:19:25.812Z,97829.13
2023-03-29T22:21:52.585Z,97826.16
2023-03-29T22:24:19.445Z,97828.47
2023-03-29T22:26:46.643Z,97804.19
2023-03-29T22:29:13.352Z,97826.81
2023-03-29T22:31:40.410Z,97834.22
2023-03-29T22:34:07.576Z,97854.47
2023-03-29T22:36:36.987Z,97854.66
2023-03-29T22:39:05.056Z,97830.00
2023-03-29T22:41:31.800Z,97829.34
2023-03-29T22:44:01.213Z,97850.09
2023-03-29T22:46:28.441Z,97817.66
2023-03-29T22:48:55.799Z,97847.25
2023-03-29T22:51:22.590Z,97840.66
2023-03-29T22:53:49.448Z,97851.34
2023-03-29T22:56:17.251Z,97858.09
2023-03-29T22:58:44.477Z,97849.94
2023-03-29T23:01:12.030Z,97819.38
2023-03-29T23:03:39.088Z,97851.78
2023-03-29T23:06:07.193Z,97832.75
2023-03-29T23:08:35.368Z,97825.25
2023-03-29T23:11:02.631Z,97825.44
2023-03-29T23:13:30.119Z,97866.25
2023-03-29T23:15:59.358Z,97867.06
2023-03-29T23:18:28.832Z,97869.25
2023-03-29T23:20:57.274Z,97875.19
2023-03-29T23:23:25.707Z,97882.19
2023-03-29T23:25:53.701Z,97875.97
2023-03-29T23:28:23.717Z,97872.75
2023-03-29T23:31:11.693Z,97830.56
2023-03-29T23:33:42.780Z,97822.88
2023-03-29T23:36:13.896Z,97840.53
2023-03-29T23:38:42.338Z,97869.16
2023-03-29T23:41:10.960Z,97853.88
2023-03-29T23:43:43.288Z,97843.50
2023-03-29T23:46:13.129Z,97863.59
2023-03-29T23:48:40.094Z,97874.50
2023-03-29T23:51:08.366Z,97855.38
2023-03-29T23:53:35.106Z,97869.56
2023-03-29T23:56:05.066Z,97831.94
2023-03-29T23:58:34.938Z,97872.56
